Time;durP1;ratioP1;P1;durP2;ratioP2;P2;SDS_P1;SDS_P2;PMS_P1;PMS_P2;Temp;Humidity;BMP_temperature;BMP_pressure;BME280_temperature;BME280_humidity;BME280_pressure;Samples;Min_cycle;Max_cycle;Signal;HPM_P1;HPM_P2
2024/01/14 00:02:13;;;;;;;28.73;15.65;;;3.80;99.90;;;;;;5012137;28;20745;-65
2024/01/14 00:04:40;;;;;;;24.33;15.35;;;3.80;99.90;;;;;;4999292;28;20571;-64
2024/01/14 00:07:07;;;;;;;31.83;15.68;;;3.80;99.90;;;;;;4994686;28;20054;-66
2024/01/14 00:09:34;;;;;;;25.60;15.18;;;3.70;99.90;;;;;;5009354;28;20076;-65
2024/01/14 00:12:01;;;;;;;27.33;14.77;;;3.60;99.90;;;;;;5004971;28;20438;-67
2024/01/14 00:14:27;;;;;;;22.60;14.70;;;3.60;99.90;;;;;;5008465;28;20045;-66
2024/01/14 00:16:54;;;;;;;27.92;15.38;;;3.70;99.90;;;;;;5010326;28;20049;-65
2024/01/14 00:19:21;;;;;;;25.10;14.02;;;3.70;99.90;;;;;;5006918;28;20492;-65
2024/01/14 00:21:48;;;;;;;28.50;16.13;;;3.70;99.90;;;;;;5012046;28;20480;-65
2024/01/14 00:24:16;;;;;;;27.75;14.77;;;3.70;99.90;;;;;;4999305;28;20073;-64
2024/01/14 00:26:42;;;;;;;28.05;14.57;;;3.70;99.90;;;;;;5013253;28;20497;-64
2024/01/14 00:29:09;;;;;;;27.25;15.50;;;3.70;99.90;;;;;;5031401;28;20045;-64
2024/01/14 00:31:36;;;;;;;27.17;15.02;;;3.80;99.90;;;;;;5007708;28;20120;-64
2024/01/14 00:34:04;;;;;;;26.67;14.88;;;3.80;99.90;;;;;;4999955;28;20060;-64
2024/01/14 00:36:31;;;;;;;33.22;15.95;;;3.70;99.90;;;;;;5015838;28;20064;-65
2024/01/14 00:38:57;;;;;;;26.55;14.57;;;3.70;99.90;;;;;;5012582;28;20062;-64
2024/01/14 00:41:24;;;;;;;25.40;14.35;;;3.70;99.90;;;;;;5008394;28;20720;-66
2024/01/14 00:43:51;;;;;;;24.42;14.27;;;3.60;99.90;;;;;;5001783;28;20046;-66
2024/01/14 00:46:18;;;;;;;28.63;15.93;;;3.80;99.90;;;;;;5009252;28;20525;-67
2024/01/14 00:48:45;;;;;;;29.88;15.27;;;3.80;99.90;;;;;;5007638;28;20050;-66
2024/01/14 00:51:12;;;;;;;28.77;14.35;;;3.80;99.90;;;;;;5009450;28;20131;-66
2024/01/14 00:53:38;;;;;;;31.13;14.50;;;3.80;99.90;;;;;;5004734;28;20092;-66
2024/01/14 00:56:05;;;;;;;28.52;13.48;;;3.80;99.90;;;;;;5005648;28;20104;-66
2024/01/14 00:58:32;;;;;;;25.73;13.98;;;3.80;99.90;;;;;;5006788;28;20042;-66
2024/01/14 01:00:59;;;;;;;25.58;14.45;;;3.70;99.90;;;;;;5004052;28;20046;-65
2024/01/14 01:03:26;;;;;;;25.85;14.88;;;3.70;99.90;;;;;;5009712;28;20120;-65
2024/01/14 01:05:54;;;;;;;28.77;15.07;;;3.70;99.90;;;;;;4997165;28;20474;-65
2024/01/14 01:08:21;;;;;;;28.10;15.02;;;3.60;99.90;;;;;;5012231;28;20131;-64
2024/01/14 01:10:49;;;;;;;23.67;14.07;;;3.60;99.90;;;;;;5000641;28;20061;-65
2024/01/14 01:13:15;;;;;;;26.98;15.77;;;3.70;99.90;;;;;;5013342;28;20045;-64
2024/01/14 01:15:42;;;;;;;25.98;14.00;;;3.60;99.90;;;;;;5003805;28;20046;-64
2024/01/14 01:18:09;;;;;;;26.35;15.18;;;3.60;99.90;;;;;;5010647;28;20523;-64
2024/01/14 01:20:36;;;;;;;23.55;14.00;;;3.60;99.90;;;;;;4999096;28;20062;-64
2024/01/14 01:23:03;;;;;;;25.98;14.23;;;3.60;99.90;;;;;;5006373;28;20089;-65
2024/01/14 01:25:30;;;;;;;26.00;15.55;;;3.50;99.90;;;;;;5004333;28;20048;-64
2024/01/14 01:27:57;;;;;;;24.42;13.32;;;3.50;99.90;;;;;;5008119;28;20053;-65
2024/01/14 01:30:24;;;;;;;24.35;12.65;;;3.60;99.90;;;;;;5013039;28;20042;-65
2024/01/14 01:32:50;;;;;;;22.70;13.57;;;3.60;99.90;;;;;;5006172;28;20052;-66
2024/01/14 01:35:18;;;;;;;26.27;14.23;;;3.70;99.90;;;;;;5011157;28;20042;-65
2024/01/14 01:37:44;;;;;;;23.30;13.43;;;3.70;99.90;;;;;;5003970;28;20054;-65
2024/01/14 01:40:11;;;;;;;21.45;12.43;;;3.60;99.90;;;;;;5018585;28;20137;-65
2024/01/14 01:42:38;;;;;;;25.52;12.45;;;3.60;99.90;;;;;;5004403;28;20137;-65
2024/01/14 01:45:05;;;;;;;25.45;13.65;;;3.60;99.90;;;;;;5003216;28;20049;-64
2024/01/14 01:47:32;;;;;;;24.70;13.70;;;3.50;99.90;;;;;;5029026;28;20045;-64
2024/01/14 01:49:59;;;;;;;22.30;13.13;;;3.50;99.90;;;;;;5009783;28;20167;-65
2024/01/14 01:52:26;;;;;;;23.75;13.65;;;3.40;99.90;;;;;;5002569;28;20465;-65
2024/01/14 01:54:54;;;;;;;23.20;13.05;;;3.40;99.90;;;;;;4999165;28;20050;-65
2024/01/14 01:57:22;;;;;;;25.95;13.82;;;3.30;99.90;;;;;;5004991;28;20181;-65
2024/01/14 01:59:48;;;;;;;26.10;14.32;;;3.30;99.90;;;;;;5002372;28;20058;-65
2024/01/14 02:02:15;;;;;;;27.98;14.13;;;3.30;99.90;;;;;;5000921;28;20046;-65
2024/01/14 02:04:43;;;;;;;26.20;15.57;;;3.20;99.90;;;;;;5007028;28;20071;-65
2024/01/14 02:07:10;;;;;;;28.27;14.73;;;3.30;99.90;;;;;;5002937;28;20041;-65
2024/01/14 02:09:36;;;;;;;26.02;14.52;;;3.30;99.90;;;;;;5004664;28;20096;-66
2024/01/14 02:12:03;;;;;;;24.00;13.43;;;3.30;99.90;;;;;;5002096;28;20490;-65
2024/01/14 02:14:30;;;;;;;26.30;14.38;;;3.40;99.90;;;;;;5008889;28;20050;-65
2024/01/14 02:16:57;;;;;;;22.33;13.32;;;3.40;99.90;;;;;;5006762;28;20123;-65
2024/01/14 02:19:24;;;;;;;24.08;14.13;;;3.50;99.90;;;;;;5009485;28;20452;-65
2024/01/14 02:21:58;;;;;;;25.75;14.43;;;3.30;99.90;;;;;;5010196;28;20128;-65
2024/01/14 02:24:27;;;;;;;26.95;14.65;;;3.30;99.90;;;;;;5007440;28;20120;-65
2024/01/14 02:26:54;;;;;;;25.45;12.68;;;3.30;99.90;;;;;;5003747;28;20584;-64
2024/01/14 02:29:21;;;;;;;24.95;14.98;;;3.40;99.90;;;;;;5012641;28;20053;-65
2024/01/14 02:31:48;;;;;;;25.63;13.73;;;3.30;99.90;;;;;;5001378;28;20473;-65
2024/01/14 02:34:15;;;;;;;29.75;15.35;;;3.30;99.90;;;;;;5008613;28;20085;-65
2024/01/14 02:36:42;;;;;;;25.05;14.82;;;3.40;99.90;;;;;;5019577;28;20050;-65
2024/01/14 02:39:09;;;;;;;27.75;16.23;;;3.50;99.90;;;;;;5008961;28;20563;-65
2024/01/14 02:41:36;;;;;;;24.27;14.05;;;3.50;99.90;;;;;;5009197;28;20044;-65
2024/01/14 02:44:03;;;;;;;25.98;15.05;;;3.50;99.90;;;;;;5000442;28;20078;-64
2024/01/14 02:46:30;;;;;;;28.23;15.05;;;3.50;99.90;;;;;;5008629;28;20436;-64
2024/01/14 02:48:59;;;;;;;32.42;14.23;;;3.50;99.90;;;;;;5006933;28;20544;-65
2024/01/14 02:51:26;;;;;;;27.63;14.55;;;3.50;99.90;;;;;;5019915;28;20061;-65
2024/01/14 02:53:53;;;;;;;28.98;14.65;;;3.50;99.90;;;;;;5004510;28;20134;-64
2024/01/14 02:56:20;;;;;;;26.40;14.18;;;3.50;99.90;;;;;;5022061;28;20176;-64
2024/01/14 02:58:47;;;;;;;24.30;13.32;;;3.50;99.90;;;;;;5007787;28;20050;-64
2024/01/14 03:01:14;;;;;;;26.17;13.90;;;3.50;99.90;;;;;;5012892;28;20042;-64
2024/01/14 03:03:41;;;;;;;23.63;14.07;;;3.50;99.90;;;;;;5008681;28;20050;-64
2024/01/14 03:06:08;;;;;;;24.73;14.23;;;3.50;99.90;;;;;;5013561;28;20559;-64
2024/01/14 03:08:36;;;;;;;27.67;14.27;;;3.50;99.90;;;;;;5008360;28;20141;-65
2024/01/14 03:11:04;;;;;;;24.55;13.65;;;3.50;99.90;;;;;;5024314;28;20196;-65
2024/01/14 03:13:31;;;;;;;29.42;15.48;;;3.50;99.90;;;;;;5007897;28;20187;-65
2024/01/14 03:15:58;;;;;;;26.50;14.50;;;3.50;99.90;;;;;;5006901;28;20077;-65
2024/01/14 03:18:25;;;;;;;25.23;14.05;;;3.50;99.90;;;;;;5006752;28;20046;-65
2024/01/14 03:20:52;;;;;;;28.60;15.25;;;3.40;99.90;;;;;;5008160;28;20050;-65
2024/01/14 03:23:19;;;;;;;30.23;16.05;;;3.40;99.90;;;;;;5005703;28;20734;-65
2024/01/14 03:25:46;;;;;;;27.30;14.55;;;3.40;99.90;;;;;;5006744;28;20053;-65
2024/01/14 03:28:13;;;;;;;26.02;13.77;;;3.40;99.90;;;;;;5006987;28;20565;-65
2024/01/14 03:30:40;;;;;;;25.48;14.13;;;3.40;99.90;;;;;;5010831;28;20448;-65
2024/01/14 03:33:07;;;;;;;24.77;12.75;;;3.40;99.90;;;;;;5007683;28;20049;-65
2024/01/14 03:35:34;;;;;;;28.67;14.95;;;3.40;99.90;;;;;;5001829;28;20049;-66
2024/01/14 03:38:00;;;;;;;28.08;14.02;;;3.40;99.90;;;;;;5011057;28;20050;-65
2024/01/14 03:40:27;;;;;;;31.95;16.45;;;3.40;99.90;;;;;;5005762;28;20433;-65
2024/01/14 03:42:54;;;;;;;29.27;14.80;;;3.40;99.90;;;;;;5008452;28;20115;-65
2024/01/14 03:45:21;;;;;;;27.45;15.50;;;3.40;99.90;;;;;;4998893;28;20042;-66
2024/01/14 03:47:48;;;;;;;29.13;14.32;;;3.40;99.90;;;;;;5009857;28;20050;-65
2024/01/14 03:50:15;;;;;;;30.98;14.32;;;3.40;99.90;;;;;;5011818;28;20052;-65
2024/01/14 03:52:42;;;;;;;32.55;17.75;;;3.40;99.90;;;;;;5006617;28;20056;-65
2024/01/14 03:55:09;;;;;;;28.65;16.67;;;3.30;99.90;;;;;;5009199;28;20049;-64
2024/01/14 03:57:35;;;;;;;30.88;16.30;;;3.40;99.90;;;;;;5003282;28;20103;-64
2024/01/14 04:00:03;;;;;;;28.80;15.73;;;3.30;99.90;;;;;;5005564;28;20088;-64
2024/01/14 04:02:30;;;;;;;29.42;17.08;;;3.30;99.90;;;;;;5005837;28;20060;-65
2024/01/14 04:04:56;;;;;;;30.92;16.70;;;3.30;99.90;;;;;;5004749;28;20054;-65
2024/01/14 04:07:23;;;;;;;27.27;15.05;;;3.30;99.90;;;;;;5007675;28;20052;-65
2024/01/14 04:09:50;;;;;;;35.17;17.35;;;3.30;99.90;;;;;;5004797;28;20050;-66
2024/01/14 04:12:17;;;;;;;26.20;14.63;;;3.30;99.90;;;;;;5006053;28;20056;-65
2024/01/14 04:14:44;;;;;;;24.45;14.18;;;3.30;99.90;;;;;;5009948;28;20058;-65
2024/01/14 04:17:11;;;;;;;31.15;16.77;;;3.30;99.90;;;;;;5003965;28;20097;-65
2024/01/14 04:19:38;;;;;;;29.15;14.93;;;3.40;99.90;;;;;;5014100;28;20046;-65
2024/01/14 04:22:05;;;;;;;30.05;15.93;;;3.30;99.90;;;;;;5005568;28;20136;-66
2024/01/14 04:24:32;;;;;;;35.22;16.23;;;3.40;99.90;;;;;;5011627;28;20461;-65
2024/01/14 04:26:59;;;;;;;30.45;16.52;;;3.40;99.90;;;;;;5005313;28;20125;-65
2024/01/14 04:29:25;;;;;;;34.40;16.88;;;3.40;99.90;;;;;;5011095;28;20054;-65
2024/01/14 04:31:52;;;;;;;35.08;17.58;;;3.40;99.90;;;;;;5002279;28;20485;-65
2024/01/14 04:34:19;;;;;;;35.55;16.38;;;3.40;99.90;;;;;;5004741;28;20056;-65
2024/01/14 04:36:46;;;;;;;39.65;15.98;;;3.40;99.90;;;;;;5002860;28;20500;-65
2024/01/14 04:39:13;;;;;;;36.40;17.67;;;3.40;99.90;;;;;;5034234;28;20398;-65
2024/01/14 04:41:40;;;;;;;38.70;17.13;;;3.40;99.90;;;;;;5004011;28;20041;-65
2024/01/14 04:44:07;;;;;;;34.45;16.75;;;3.40;99.90;;;;;;5005881;28;20437;-65
2024/01/14 04:46:34;;;;;;;30.70;16.40;;;3.40;99.90;;;;;;5006004;28;20583;-65
2024/01/14 04:49:01;;;;;;;24.63;13.25;;;3.50;99.90;;;;;;4995895;28;20046;-65
2024/01/14 04:51:28;;;;;;;31.92;15.32;;;3.40;99.90;;;;;;5003756;28;20153;-65
2024/01/14 04:53:55;;;;;;;51.45;19.05;;;3.40;99.90;;;;;;4997747;28;20038;-65
2024/01/14 04:56:22;;;;;;;29.48;16.02;;;3.40;99.90;;;;;;5005683;28;20061;-65
2024/01/14 04:58:49;;;;;;;27.00;15.15;;;3.30;99.90;;;;;;4994129;28;20046;-65
2024/01/14 05:01:15;;;;;;;33.17;15.63;;;3.30;99.90;;;;;;5009500;28;20412;-65
2024/01/14 05:03:43;;;;;;;29.30;14.57;;;3.40;99.90;;;;;;4998261;28;20042;-65
2024/01/14 05:06:10;;;;;;;30.92;16.83;;;3.40;99.90;;;;;;5010241;28;20045;-65
2024/01/14 05:08:40;;;;;;;32.35;14.18;;;3.40;99.90;;;;;;5019070;28;20505;-65
2024/01/14 05:11:07;;;;;;;31.30;15.07;;;3.30;99.90;;;;;;5015618;28;20060;-65
2024/01/14 05:13:34;;;;;;;30.27;15.88;;;3.30;99.90;;;;;;5004563;28;20880;-65
2024/01/14 05:16:00;;;;;;;31.75;15.27;;;3.30;99.90;;;;;;5007876;28;20046;-65
2024/01/14 05:18:28;;;;;;;29.60;14.48;;;3.30;99.90;;;;;;5008032;28;20096;-66
2024/01/14 05:20:55;;;;;;;29.73;14.90;;;3.30;99.90;;;;;;5004821;28;20125;-65
2024/01/14 05:23:22;;;;;;;28.33;14.02;;;3.40;99.90;;;;;;5010549;28;20054;-66
2024/01/14 05:25:49;;;;;;;32.35;14.88;;;3.40;99.90;;;;;;5030357;28;20042;-65
2024/01/14 05:28:15;;;;;;;35.10;15.73;;;3.30;99.90;;;;;;5005790;28;20096;-65
2024/01/14 05:30:42;;;;;;;28.95;14.63;;;3.30;99.90;;;;;;5015385;28;20042;-65
2024/01/14 05:33:09;;;;;;;28.65;14.18;;;3.30;99.90;;;;;;5003078;28;20759;-65
2024/01/14 05:35:36;;;;;;;30.52;15.45;;;3.30;99.90;;;;;;5016565;28;20060;-65
2024/01/14 05:38:03;;;;;;;28.48;14.25;;;3.30;99.90;;;;;;5008142;28;20103;-65
2024/01/14 05:40:30;;;;;;;31.10;15.45;;;3.40;99.90;;;;;;5003121;28;20100;-64
2024/01/14 05:42:56;;;;;;;26.63;13.73;;;3.30;99.90;;;;;;5003255;28;20513;-65
2024/01/14 05:45:23;;;;;;;35.80;15.73;;;3.40;99.90;;;;;;5004085;28;20042;-66
2024/01/14 05:47:50;;;;;;;27.10;14.48;;;3.40;99.90;;;;;;5007006;28;20045;-66
2024/01/14 05:50:17;;;;;;;32.03;14.65;;;3.40;99.90;;;;;;5003526;28;20050;-65
2024/01/14 05:52:44;;;;;;;29.15;15.57;;;3.30;99.90;;;;;;5014074;28;20045;-65
2024/01/14 05:55:12;;;;;;;30.95;16.20;;;3.30;99.90;;;;;;5000833;28;20050;-65
2024/01/14 05:57:39;;;;;;;32.20;16.35;;;3.40;99.90;;;;;;5007594;28;20501;-64
2024/01/14 06:00:06;;;;;;;34.53;15.60;;;3.40;99.90;;;;;;5004354;28;20570;-66
2024/01/14 06:02:33;;;;;;;29.80;15.93;;;3.40;99.90;;;;;;5004092;28;20100;-65
2024/01/14 06:05:00;;;;;;;30.90;16.30;;;3.40;99.90;;;;;;5004278;28;20054;-66
2024/01/14 06:07:27;;;;;;;27.40;14.32;;;3.40;99.90;;;;;;5005883;28;20049;-65
2024/01/14 06:09:54;;;;;;;28.38;14.48;;;3.40;99.90;;;;;;5005471;28;20394;-64
2024/01/14 06:12:20;;;;;;;30.75;16.02;;;3.40;99.90;;;;;;5002446;28;20054;-64
2024/01/14 06:14:47;;;;;;;32.05;16.85;;;3.30;99.90;;;;;;5000923;28;20494;-65
2024/01/14 06:17:15;;;;;;;31.50;14.60;;;3.30;99.90;;;;;;5001111;28;20050;-65
2024/01/14 06:19:42;;;;;;;29.48;17.67;;;3.30;99.90;;;;;;5001166;28;20073;-64
2024/01/14 06:22:09;;;;;;;29.60;14.27;;;3.40;99.90;;;;;;4996501;28;20141;-64
2024/01/14 06:24:36;;;;;;;31.90;16.40;;;3.40;99.90;;;;;;5003810;28;20045;-65
2024/01/14 06:27:03;;;;;;;28.33;14.57;;;3.30;99.90;;;;;;5001136;28;20068;-64
2024/01/14 06:29:30;;;;;;;32.28;15.73;;;3.30;99.90;;;;;;5004654;28;20038;-65
2024/01/14 06:31:58;;;;;;;30.50;15.52;;;3.40;99.90;;;;;;5004752;28;20045;-65
2024/01/14 06:34:25;;;;;;;36.28;16.30;;;3.30;99.90;;;;;;5003077;28;20042;-65
2024/01/14 06:36:52;;;;;;;29.65;15.40;;;3.30;99.90;;;;;;5001949;28;20137;-65
2024/01/14 06:39:19;;;;;;;34.78;16.63;;;3.20;99.90;;;;;;5003828;28;20070;-65
2024/01/14 06:41:46;;;;;;;34.88;16.15;;;3.30;99.90;;;;;;5002164;28;20058;-65
2024/01/14 06:44:16;;;;;;;40.70;16.88;;;3.30;99.90;;;;;;5022887;28;20045;-65
2024/01/14 06:46:43;;;;;;;28.42;14.75;;;3.30;99.90;;;;;;4998436;28;20116;-65
2024/01/14 06:49:10;;;;;;;32.75;16.85;;;3.30;99.90;;;;;;5014667;28;20511;-65
2024/01/14 06:51:44;;;;;;;33.67;16.08;;;3.20;99.90;;;;;;5006517;28;20127;-66
2024/01/14 06:54:11;;;;;;;31.93;16.53;;;3.30;99.90;;;;;;5015163;28;20077;-65
2024/01/14 06:56:44;;;;;;;37.08;16.42;;;3.30;99.90;;;;;;4997566;28;20046;-65
2024/01/14 06:59:19;;;;;;;33.67;16.88;;;3.30;99.90;;;;;;5008299;28;20456;-65
2024/01/14 07:01:46;;;;;;;36.42;15.90;;;3.30;99.90;;;;;;5003312;28;20129;-65
2024/01/14 07:04:13;;;;;;;31.85;15.95;;;3.30;99.90;;;;;;5005572;28;20081;-65
2024/01/14 07:06:40;;;;;;;32.80;16.15;;;3.30;99.90;;;;;;5010955;28;20108;-66
2024/01/14 07:09:10;;;;;;;32.45;15.52;;;3.30;99.90;;;;;;4999390;28;20050;-65
2024/01/14 07:11:37;;;;;;;33.85;16.48;;;3.40;99.90;;;;;;5003315;28;20137;-65
2024/01/14 07:14:04;;;;;;;30.23;14.88;;;3.30;99.90;;;;;;5011044;28;20116;-64
2024/01/14 07:16:31;;;;;;;30.95;14.70;;;3.30;99.90;;;;;;5009391;28;20460;-64
2024/01/14 07:18:58;;;;;;;32.42;16.63;;;3.40;99.90;;;;;;5006105;28;20061;-66
2024/01/14 07:21:26;;;;;;;31.70;14.88;;;3.50;99.90;;;;;;5006331;28;20123;-64
2024/01/14 07:23:53;;;;;;;34.33;14.82;;;3.40;99.90;;;;;;5008473;28;20042;-64
2024/01/14 07:26:20;;;;;;;30.13;16.40;;;3.40;99.90;;;;;;5011254;28;20081;-64
2024/01/14 07:28:52;;;;;;;31.83;15.23;;;3.30;99.90;;;;;;4661137;28;10001098;-64
2024/01/14 07:31:23;;;;;;;31.88;15.68;;;3.40;99.90;;;;;;5016343;28;20088;-65
2024/01/14 07:33:50;;;;;;;32.00;16.13;;;3.30;99.90;;;;;;5004536;28;20460;-65
2024/01/14 07:36:18;;;;;;;30.35;13.65;;;3.40;99.90;;;;;;5003408;28;20052;-64
2024/01/14 07:38:46;;;;;;;28.70;14.23;;;3.40;99.90;;;;;;5000202;28;20046;-66
2024/01/14 07:41:13;;;;;;;33.65;16.10;;;3.30;99.90;;;;;;5005968;28;20492;-66
2024/01/14 07:43:40;;;;;;;34.38;16.30;;;3.40;99.90;;;;;;4998875;28;20042;-63
2024/01/14 07:46:07;;;;;;;37.47;14.88;;;3.40;99.90;;;;;;4991680;28;20046;-64
2024/01/14 07:48:34;;;;;;;31.30;15.80;;;3.40;99.90;;;;;;4998406;28;20054;-64
2024/01/14 07:51:02;;;;;;;35.53;15.55;;;3.40;99.90;;;;;;5010051;28;20535;-65
2024/01/14 07:53:29;;;;;;;29.08;16.60;;;3.30;99.90;;;;;;5000776;28;20308;-64
2024/01/14 07:55:56;;;;;;;31.98;16.63;;;3.40;99.90;;;;;;5010822;28;20060;-65
2024/01/14 07:58:24;;;;;;;31.38;15.63;;;3.40;99.90;;;;;;5004873;28;20050;-66
2024/01/14 08:00:52;;;;;;;34.92;14.57;;;3.40;99.90;;;;;;5000381;28;20045;-65
2024/01/14 08:03:29;;;;;;;28.38;14.52;;;3.30;99.90;;;;;;4999765;28;20041;-65
2024/01/14 08:05:57;;;;;;;31.23;15.70;;;3.30;99.90;;;;;;4993907;28;20494;-65
2024/01/14 08:08:34;;;;;;;31.17;15.32;;;3.30;99.90;;;;;;4999752;28;20057;-66
2024/01/14 08:11:04;;;;;;;32.25;15.77;;;3.30;99.90;;;;;;4997431;28;20065;-65
2024/01/14 08:13:31;;;;;;;32.85;15.30;;;3.30;99.90;;;;;;5002690;28;20061;-66
2024/01/14 08:15:58;;;;;;;28.92;14.68;;;3.30;99.90;;;;;;5002899;28;20046;-64
2024/01/14 08:18:29;;;;;;;30.05;14.10;;;3.40;99.90;;;;;;4998992;28;20097;-65
2024/01/14 08:20:58;;;;;;;27.85;12.70;;;3.40;99.90;;;;;;4999928;28;20153;-65
2024/01/14 08:23:25;;;;;;;31.42;15.68;;;3.40;99.90;;;;;;5006148;28;20060;-64
2024/01/14 08:25:52;;;;;;;30.15;12.85;;;3.40;99.90;;;;;;5000372;28;20284;-65
2024/01/14 08:28:18;;;;;;;32.13;15.13;;;3.40;99.90;;;;;;4999969;28;20089;-65
2024/01/14 08:30:45;;;;;;;38.47;14.98;;;3.50;99.90;;;;;;4995723;28;20104;-64
2024/01/14 08:33:12;;;;;;;28.92;14.13;;;3.50;99.90;;;;;;5002878;28;20050;-65
2024/01/14 08:35:39;;;;;;;27.17;13.68;;;3.50;99.90;;;;;;4996100;28;20513;-65
2024/01/14 08:38:06;;;;;;;28.60;14.13;;;3.60;99.90;;;;;;4998773;28;20053;-64
2024/01/14 08:40:33;;;;;;;29.15;14.75;;;3.60;99.90;;;;;;5002619;28;20113;-65
2024/01/14 08:43:00;;;;;;;30.92;15.00;;;3.60;99.90;;;;;;4990727;28;20165;-65
2024/01/14 08:45:26;;;;;;;34.95;16.17;;;3.60;99.90;;;;;;4999238;28;20669;-65
2024/01/14 08:47:53;;;;;;;28.85;14.38;;;3.60;99.90;;;;;;5011644;28;20141;-65
2024/01/14 08:50:20;;;;;;;30.85;14.40;;;3.60;99.90;;;;;;5008200;28;20049;-65
2024/01/14 08:52:47;;;;;;;34.35;15.95;;;3.60;99.90;;;;;;5005601;28;20041;-64
2024/01/14 08:55:14;;;;;;;25.55;13.00;;;3.60;99.90;;;;;;5002306;28;20072;-65
2024/01/14 08:57:41;;;;;;;27.10;13.07;;;3.60;99.90;;;;;;5006800;28;20042;-65
2024/01/14 09:00:09;;;;;;;24.45;13.15;;;3.70;99.90;;;;;;5005999;28;20042;-65
2024/01/14 09:02:36;;;;;;;27.55;14.23;;;3.70;99.90;;;;;;5010701;28;20049;-65
2024/01/14 09:05:03;;;;;;;30.70;14.02;;;3.70;99.90;;;;;;5006325;28;20054;-65
2024/01/14 09:07:30;;;;;;;33.38;14.57;;;3.70;99.90;;;;;;5000851;28;20057;-65
2024/01/14 09:09:59;;;;;;;24.98;14.23;;;3.80;99.90;;;;;;5000005;28;20057;-65
2024/01/14 09:12:26;;;;;;;25.35;13.65;;;3.80;99.90;;;;;;5002044;28;20048;-65
2024/01/14 09:14:53;;;;;;;31.15;14.77;;;3.80;99.90;;;;;;5005045;28;20177;-66
2024/01/14 09:17:20;;;;;;;25.92;12.45;;;3.80;99.90;;;;;;4994277;28;20053;-66
2024/01/14 09:19:47;;;;;;;27.25;14.00;;;3.90;99.90;;;;;;5002603;28;21154;-64
2024/01/14 09:22:14;;;;;;;24.55;12.85;;;3.90;99.90;;;;;;4998742;28;20048;-65
2024/01/14 09:24:45;;;;;;;24.05;11.98;;;3.90;99.90;;;;;;5005492;28;20053;-65
2024/01/14 09:27:15;;;;;;;23.08;12.57;;;4.00;99.90;;;;;;5003062;28;20729;-65
2024/01/14 09:29:42;;;;;;;25.52;11.38;;;4.10;99.90;;;;;;4999950;28;20483;-66
2024/01/14 09:32:09;;;;;;;25.77;13.18;;;3.90;99.90;;;;;;4999137;28;20058;-65
2024/01/14 09:34:36;;;;;;;25.83;11.18;;;4.00;99.90;;;;;;4999494;28;20042;-66
2024/01/14 09:37:03;;;;;;;21.00;11.07;;;4.00;99.90;;;;;;5005601;28;20305;-66
2024/01/14 09:39:30;;;;;;;24.90;11.80;;;4.10;99.90;;;;;;5000280;28;20405;-65
2024/01/14 09:42:24;;;;;;;20.13;11.18;;;4.10;99.90;;;;;;5001841;28;20049;-65
2024/01/14 09:44:54;;;;;;;21.67;12.00;;;4.10;99.90;;;;;;5031627;28;20045;-65
2024/01/14 09:47:21;;;;;;;19.60;9.32;;;4.10;99.90;;;;;;4999297;28;20050;-66
2024/01/14 09:49:48;;;;;;;21.40;11.07;;;4.10;99.90;;;;;;5004911;28;20052;-67
2024/01/14 09:52:15;;;;;;;20.10;10.90;;;4.20;99.90;;;;;;4989081;28;20119;-66
2024/01/14 09:54:41;;;;;;;23.80;11.25;;;4.20;99.90;;;;;;5020054;28;20100;-65
2024/01/14 09:57:11;;;;;;;22.52;11.27;;;4.20;99.90;;;;;;5001542;28;20053;-66
2024/01/14 09:59:39;;;;;;;22.13;11.38;;;4.30;99.90;;;;;;5000466;28;20042;-65
2024/01/14 10:02:06;;;;;;;21.05;10.80;;;4.30;99.90;;;;;;5001156;28;20140;-66
2024/01/14 10:04:32;;;;;;;24.40;10.98;;;4.30;99.90;;;;;;5009757;28;20045;-65
2024/01/14 10:06:59;;;;;;;24.20;10.82;;;4.30;99.90;;;;;;5000546;28;20107;-64
2024/01/14 10:09:27;;;;;;;24.40;12.52;;;4.40;99.90;;;;;;5004645;28;20111;-63
2024/01/14 10:11:54;;;;;;;24.17;10.88;;;4.40;99.90;;;;;;5003406;28;20064;-63
2024/01/14 10:14:26;;;;;;;26.33;12.30;;;4.40;99.90;;;;;;5001044;28;20145;-63
2024/01/14 10:16:59;;;;;;;22.38;10.80;;;4.40;99.90;;;;;;5001047;28;20042;-62
2024/01/14 10:19:26;;;;;;;21.67;12.10;;;4.40;99.90;;;;;;5002760;28;20046;-61
2024/01/14 10:21:54;;;;;;;20.02;10.60;;;4.40;99.90;;;;;;4995944;28;20061;-63
2024/01/14 10:24:41;;;;;;;22.98;11.25;;;4.40;99.90;;;;;;5001817;28;20141;-63
2024/01/14 10:27:10;;;;;;;22.92;11.18;;;4.50;99.90;;;;;;5006575;28;20053;-62
2024/01/14 10:29:37;;;;;;;19.73;10.27;;;4.50;99.90;;;;;;5029724;28;20046;-62
2024/01/14 10:32:04;;;;;;;18.92;10.57;;;4.70;99.90;;;;;;5007850;28;20069;-63
2024/01/14 10:34:31;;;;;;;25.95;10.48;;;4.60;99.90;;;;;;5003859;28;20053;-63
2024/01/14 10:37:01;;;;;;;32.28;11.80;;;4.60;99.90;;;;;;5010956;28;20050;-62
2024/01/14 10:39:32;;;;;;;23.35;10.57;;;4.60;99.90;;;;;;5001170;28;20048;-62
2024/01/14 10:42:02;;;;;;;17.58;9.60;;;4.60;99.90;;;;;;5002490;28;20317;-62
2024/01/14 10:44:29;;;;;;;21.27;9.15;;;4.60;99.90;;;;;;4999752;28;20108;-63
2024/01/14 10:46:58;;;;;;;18.92;9.45;;;4.70;99.90;;;;;;5006883;28;20046;-62
2024/01/14 10:49:27;;;;;;;20.38;9.18;;;4.70;99.90;;;;;;5000933;28;20089;-62
2024/01/14 10:52:07;;;;;;;16.05;8.07;;;4.70;99.90;;;;;;5006360;28;20060;-63
2024/01/14 10:54:45;;;;;;;13.70;7.75;;;4.80;99.90;;;;;;5003372;28;20071;-63
2024/01/14 10:57:21;;;;;;;19.10;8.10;;;4.80;99.90;;;;;;5017840;28;20092;-63
2024/01/14 10:59:48;;;;;;;17.08;8.38;;;4.80;99.90;;;;;;5000434;28;20089;-64
2024/01/14 11:02:18;;;;;;;20.75;9.07;;;4.80;99.90;;;;;;5006441;28;20062;-63
2024/01/14 11:04:45;;;;;;;21.95;9.15;;;4.80;99.90;;;;;;5005434;28;20451;-61
2024/01/14 11:07:12;;;;;;;19.52;10.20;;;4.90;99.90;;;;;;5013529;28;20049;-64
2024/01/14 11:09:40;;;;;;;18.92;10.10;;;4.90;99.90;;;;;;5011775;28;20425;-63
2024/01/14 11:12:13;;;;;;;22.85;9.98;;;4.90;99.90;;;;;;5042258;28;20050;-62
2024/01/14 11:14:43;;;;;;;;;;;4.90;99.90;;;;;;5009515;28;20042;-63
2024/01/14 11:17:18;;;;;;;29.23;10.88;;;4.90;99.90;;;;;;5002743;28;20362;-62
2024/01/14 11:19:45;;;;;;;27.25;10.30;;;4.90;99.90;;;;;;5009053;28;20050;-63
2024/01/14 11:22:22;;;;;;;25.20;10.45;;;4.90;99.90;;;;;;5003136;28;20069;-62
2024/01/14 11:25:03;;;;;;;22.75;10.30;;;4.80;99.90;;;;;;5005188;28;20072;-63
2024/01/14 11:27:31;;;;;;;22.55;10.95;;;4.90;99.90;;;;;;5014712;28;20072;-62
2024/01/14 11:29:58;;;;;;;22.80;10.52;;;4.90;99.90;;;;;;5003471;28;20056;-63
2024/01/14 11:32:26;;;;;;;21.05;11.25;;;4.90;99.90;;;;;;5001988;28;20042;-62
2024/01/14 11:34:54;;;;;;;32.47;10.70;;;5.00;99.90;;;;;;5007489;28;20126;-62
2024/01/14 11:37:42;;;;;;;21.08;10.07;;;5.10;99.90;;;;;;5039483;28;20054;-62
2024/01/14 11:40:11;;;;;;;19.38;9.77;;;5.10;99.90;;;;;;5001300;28;20490;-63
2024/01/14 11:42:47;;;;;;;22.65;10.15;;;5.20;99.90;;;;;;5000989;28;20082;-62
2024/01/14 11:45:32;;;;;;;18.40;8.70;;;5.10;99.90;;;;;;5006363;28;20049;-62
2024/01/14 11:48:00;;;;;;;25.88;10.32;;;5.20;99.90;;;;;;5003931;28;20058;-63
2024/01/14 11:50:27;;;;;;;21.67;10.98;;;5.20;99.90;;;;;;5017522;28;20081;-61
2024/01/14 11:52:57;;;;;;;21.33;9.25;;;5.30;99.90;;;;;;4996932;28;20050;-62
2024/01/14 11:55:24;;;;;;;18.52;9.02;;;5.30;99.90;;;;;;5002375;28;20552;-65
2024/01/14 11:57:52;;;;;;;17.45;8.60;;;5.20;99.90;;;;;;5020482;28;20081;-62
2024/01/14 12:00:22;;;;;;;21.38;10.02;;;5.30;99.90;;;;;;4999628;28;20050;-62
2024/01/14 12:03:09;;;;;;;17.23;9.35;;;5.30;99.90;;;;;;5003079;28;20661;-63
2024/01/14 12:05:36;;;;;;;30.55;9.57;;;5.30;99.90;;;;;;4996695;28;20605;-63
2024/01/14 12:08:06;;;;;;;18.63;9.45;;;5.20;99.90;;;;;;4999225;28;20049;-63
2024/01/14 12:10:35;;;;;;;22.58;10.95;;;5.30;99.90;;;;;;5007381;28;20140;-63
2024/01/14 12:13:03;;;;;;;22.30;10.52;;;5.30;99.90;;;;;;5004078;28;20057;-62
2024/01/14 12:15:30;;;;;;;34.80;13.05;;;5.30;99.90;;;;;;5007258;28;20042;-63
2024/01/14 12:18:04;;;;;;;19.80;9.27;;;5.20;99.90;;;;;;5005094;28;20143;-62
2024/01/14 12:20:31;;;;;;;22.00;10.80;;;5.30;99.90;;;;;;5002784;28;20294;-63
2024/01/14 12:23:00;;;;;;;28.85;11.27;;;5.30;99.90;;;;;;4995221;28;20089;-62
2024/01/14 12:25:26;;;;;;;18.08;9.85;;;5.30;99.90;;;;;;5004321;28;20535;-63
2024/01/14 12:27:57;;;;;;;22.83;11.63;;;5.40;99.90;;;;;;4998326;28;20069;-63
2024/01/14 12:30:24;;;;;;;23.33;9.88;;;5.40;99.90;;;;;;5000183;28;20492;-62
2024/01/14 12:32:51;;;;;;;22.42;9.35;;;5.50;99.90;;;;;;4999857;28;20057;-63
2024/01/14 12:35:18;;;;;;;20.70;9.27;;;5.50;99.90;;;;;;5002737;28;20050;-65
2024/01/14 12:37:45;;;;;;;21.75;9.43;;;5.50;99.90;;;;;;5000978;28;20487;-63
2024/01/14 12:40:12;;;;;;;31.17;9.70;;;5.50;99.90;;;;;;5004520;28;20045;-63
2024/01/14 12:42:39;;;;;;;22.88;10.15;;;5.60;99.90;;;;;;5002020;28;20104;-63